Archival Weather

Norman Y Mineta San Jose Intl

San Jose, California (KSJC)

Report from: Saturday, February 3, 2024 3:53 PM PST
Current time: Friday, June 14, 2024 5:54 AM PDT

Current weather – Weather history – Daily summaries
Weather forecast

Temperature13.9°C (57.0°F)
Dew point3.9°C (39.0°F)
Winds 8 kts (4.1 m/s, 9.2 mph) South (170°)
Visibility10 mi. (16.1 km)
Clouds Few clouds 2,200 ft. (671 m)
Ceiling: Broken clouds 7,500 ft. (2,286 m)
Overcast 10,000 ft. (3,048 m)
Altimeter29.92 in.Hg (1013 mB)
Relative humidity51 %
Density altitude1 ft. (0 m)
Sea-level pressure101.3 kPa (1013 mB, 29.91 in.Hg)
Max temp last 6 hours14.4°C (57.9°F)
Min temp last 6 hours11.7°C (53.1°F)
Remarks Automated weather observing station with precipitation discriminator
Pressure falling more slowly
Flight conditions Visual Meteorological Conditions
Raw dataKSJC 032353Z 17008KT 10SM FEW022 BKN075 OVC100 14/04 A2992 RMK AO2 SLP129 T01390039 10144 20117 56019
An error has occurred. This application may no longer respond until reloaded. Reload 🗙